sensor_id;sensor_type;location;lat;lon;timestamp;pressure;altitude;pressure_sealevel;temperature;humidity
46223;BME280;31943;51.410;7.564;2023-12-29T00:00:50;99646.50;;;10.08;61.55
46223;BME280;31943;51.410;7.564;2023-12-29T00:03:16;99635.22;;;10.09;61.50
46223;BME280;31943;51.410;7.564;2023-12-29T00:05:42;99646.53;;;10.12;61.52
46223;BME280;31943;51.410;7.564;2023-12-29T00:08:07;99640.44;;;10.14;61.72
46223;BME280;31943;51.410;7.564;2023-12-29T00:10:34;99639.56;;;10.15;61.64
46223;BME280;31943;51.410;7.564;2023-12-29T00:13:01;99640.44;;;10.14;61.53
46223;BME280;31943;51.410;7.564;2023-12-29T00:15:26;99639.56;;;10.17;61.43
46223;BME280;31943;51.410;7.564;2023-12-29T00:17:52;99632.63;;;10.16;61.70
46223;BME280;31943;51.410;7.564;2023-12-29T00:20:18;99631.75;;;10.15;61.42
46223;BME280;31943;51.410;7.564;2023-12-29T00:22:43;99624.78;;;10.17;61.66
46223;BME280;31943;51.410;7.564;2023-12-29T00:25:09;99629.13;;;10.15;61.63
46223;BME280;31943;51.410;7.564;2023-12-29T00:27:35;99635.22;;;10.14;61.57
46223;BME280;31943;51.410;7.564;2023-12-29T00:30:03;99635.22;;;10.17;61.37
46223;BME280;31943;51.410;7.564;2023-12-29T00:32:29;99642.19;;;10.23;61.41
46223;BME280;31943;51.410;7.564;2023-12-29T00:34:55;99642.19;;;10.24;61.33
46223;BME280;31943;51.410;7.564;2023-12-29T00:37:20;99636.13;;;10.25;61.29
46223;BME280;31943;51.410;7.564;2023-12-29T00:39:46;99643.06;;;10.28;61.33
46223;BME280;31943;51.410;7.564;2023-12-29T00:42:12;99649.16;;;10.28;61.45
46223;BME280;31943;51.410;7.564;2023-12-29T00:44:37;99635.25;;;10.26;61.49
46223;BME280;31943;51.410;7.564;2023-12-29T00:47:05;99637.00;;;10.26;61.20
46223;BME280;31943;51.410;7.564;2023-12-29T00:49:31;99626.59;;;10.29;61.30
46223;BME280;31943;51.410;7.564;2023-12-29T00:51:56;99630.91;;;10.28;61.47
46223;BME280;31943;51.410;7.564;2023-12-29T00:54:22;99632.63;;;10.25;61.36
46223;BME280;31943;51.410;7.564;2023-12-29T00:56:48;99627.41;;;10.25;61.73
46223;BME280;31943;51.410;7.564;2023-12-29T00:59:14;99615.25;;;10.27;61.39
46223;BME280;31943;51.410;7.564;2023-12-29T01:01:40;99614.44;;;10.31;61.31
46223;BME280;31943;51.410;7.564;2023-12-29T01:04:11;99605.72;;;10.32;61.75
46223;BME280;31943;51.410;7.564;2023-12-29T01:06:36;99606.56;;;10.29;61.53
46223;BME280;31943;51.410;7.564;2023-12-29T01:09:02;99600.50;;;10.27;61.64
46223;BME280;31943;51.410;7.564;2023-12-29T01:11:28;99609.22;;;10.31;61.74
46223;BME280;31943;51.410;7.564;2023-12-29T01:13:53;99615.31;;;10.33;61.93
46223;BME280;31943;51.410;7.564;2023-12-29T01:16:20;99598.78;;;10.33;61.75
46223;BME280;31943;51.410;7.564;2023-12-29T01:18:46;99617.91;;;10.32;61.62
46223;BME280;31943;51.410;7.564;2023-12-29T01:21:14;99604.81;;;10.28;61.39
46223;BME280;31943;51.410;7.564;2023-12-29T01:23:41;99602.25;;;10.32;61.55
46223;BME280;31943;51.410;7.564;2023-12-29T01:26:06;99587.47;;;10.34;61.70
46223;BME280;31943;51.410;7.564;2023-12-29T01:28:33;99597.06;;;10.33;61.72
46223;BME280;31943;51.410;7.564;2023-12-29T01:30:59;99583.13;;;10.34;61.50
46223;BME280;31943;51.410;7.564;2023-12-29T01:33:25;99586.59;;;10.35;61.61
46223;BME280;31943;51.410;7.564;2023-12-29T01:35:51;99588.34;;;10.34;61.45
46223;BME280;31943;51.410;7.564;2023-12-29T01:38:18;99594.44;;;10.35;61.43
46223;BME280;31943;51.410;7.564;2023-12-29T01:40:43;99579.66;;;10.34;61.35
46223;BME280;31943;51.410;7.564;2023-12-29T01:43:09;99569.25;;;10.35;61.50
46223;BME280;31943;51.410;7.564;2023-12-29T01:45:35;99578.78;;;10.38;61.38
46223;BME280;31943;51.410;7.564;2023-12-29T01:48:01;99583.16;;;10.37;61.31
46223;BME280;31943;51.410;7.564;2023-12-29T01:50:27;99584.00;;;10.39;61.41
46223;BME280;31943;51.410;7.564;2023-12-29T01:52:53;99570.97;;;10.39;61.29
46223;BME280;31943;51.410;7.564;2023-12-29T01:55:22;99573.56;;;10.36;61.37
46223;BME280;31943;51.410;7.564;2023-12-29T01:57:49;99580.53;;;10.37;61.50
46223;BME280;31943;51.410;7.564;2023-12-29T02:00:17;99577.06;;;10.34;61.41
46223;BME280;31943;51.410;7.564;2023-12-29T02:02:43;99577.94;;;10.37;61.48
46223;BME280;31943;51.410;7.564;2023-12-29T02:05:11;99572.72;;;10.37;61.87
46223;BME280;31943;51.410;7.564;2023-12-29T02:07:38;99576.19;;;10.38;61.15
46223;BME280;31943;51.410;7.564;2023-12-29T02:10:06;99566.63;;;10.40;61.60
46223;BME280;31943;51.410;7.564;2023-12-29T02:12:36;99576.16;;;10.42;61.92
46223;BME280;31943;51.410;7.564;2023-12-29T02:15:01;99565.75;;;10.42;61.67
46223;BME280;31943;51.410;7.564;2023-12-29T02:17:31;99568.34;;;10.42;61.94
46223;BME280;31943;51.410;7.564;2023-12-29T02:20:00;99557.94;;;10.38;62.54
46223;BME280;31943;51.410;7.564;2023-12-29T02:22:26;99557.94;;;10.39;62.57
46223;BME280;31943;51.410;7.564;2023-12-29T02:24:55;99561.41;;;10.34;62.81
46223;BME280;31943;51.410;7.564;2023-12-29T02:27:25;99562.28;;;10.31;63.15
46223;BME280;31943;51.410;7.564;2023-12-29T02:30:05;99563.09;;;10.27;63.46
46223;BME280;31943;51.410;7.564;2023-12-29T02:32:33;99549.19;;;10.28;63.72
46223;BME280;31943;51.410;7.564;2023-12-29T02:35:01;99546.59;;;10.25;64.18
46223;BME280;31943;51.410;7.564;2023-12-29T02:37:28;99546.59;;;10.20;64.77
46223;BME280;31943;51.410;7.564;2023-12-29T02:39:58;99543.13;;;10.14;65.16
46223;BME280;31943;51.410;7.564;2023-12-29T02:42:25;99547.44;;;10.13;65.27
46223;BME280;31943;51.410;7.564;2023-12-29T02:44:51;99556.16;;;10.07;65.77
46223;BME280;31943;51.410;7.564;2023-12-29T02:47:16;99539.63;;;10.01;66.32
46223;BME280;31943;51.410;7.564;2023-12-29T02:49:42;99547.44;;;9.96;66.64
46223;BME280;31943;51.410;7.564;2023-12-29T02:52:08;99550.06;;;9.90;67.05
46223;BME280;31943;51.410;7.564;2023-12-29T02:54:33;99550.03;;;9.87;67.18
46223;BME280;31943;51.410;7.564;2023-12-29T02:57:01;99546.56;;;9.85;67.77
46223;BME280;31943;51.410;7.564;2023-12-29T02:59:27;99555.22;;;9.79;68.28
46223;BME280;31943;51.410;7.564;2023-12-29T03:01:52;99563.06;;;9.75;68.41
46223;BME280;31943;51.410;7.564;2023-12-29T03:04:18;99558.72;;;9.77;68.93
46223;BME280;31943;51.410;7.564;2023-12-29T03:06:44;99561.28;;;9.66;69.63
46223;BME280;31943;51.410;7.564;2023-12-29T03:09:10;99572.56;;;9.65;69.62
46223;BME280;31943;51.410;7.564;2023-12-29T03:11:35;99573.44;;;9.59;70.04
46223;BME280;31943;51.410;7.564;2023-12-29T03:14:03;99575.16;;;9.59;70.49
46223;BME280;31943;51.410;7.564;2023-12-29T03:16:28;99580.38;;;9.57;70.33
46223;BME280;31943;51.410;7.564;2023-12-29T03:18:54;99565.59;;;9.55;70.71
46223;BME280;31943;51.410;7.564;2023-12-29T03:21:20;99562.16;;;9.59;70.70
46223;BME280;31943;51.410;7.564;2023-12-29T03:23:46;99549.09;;;9.57;71.01
46223;BME280;31943;51.410;7.564;2023-12-29T03:26:12;99552.53;;;9.50;71.41
46223;BME280;31943;51.410;7.564;2023-12-29T03:28:38;99554.28;;;9.49;71.01
46223;BME280;31943;51.410;7.564;2023-12-29T03:31:05;99548.22;;;9.52;71.04
46223;BME280;31943;51.410;7.564;2023-12-29T03:33:31;99542.16;;;9.53;71.31
46223;BME280;31943;51.410;7.564;2023-12-29T03:36:00;99538.69;;;9.53;71.15
46223;BME280;31943;51.410;7.564;2023-12-29T03:38:25;99542.16;;;9.53;71.24
46223;BME280;31943;51.410;7.564;2023-12-29T03:40:52;99544.75;;;9.58;71.08
46223;BME280;31943;51.410;7.564;2023-12-29T03:43:18;99548.22;;;9.60;70.67
46223;BME280;31943;51.410;7.564;2023-12-29T03:45:47;99555.19;;;9.59;70.72
46223;BME280;31943;51.410;7.564;2023-12-29T03:48:15;99538.69;;;9.60;70.71
46223;BME280;31943;51.410;7.564;2023-12-29T03:50:41;99549.97;;;9.59;70.84
46223;BME280;31943;51.410;7.564;2023-12-29T03:53:07;99530.88;;;9.59;70.64
46223;BME280;31943;51.410;7.564;2023-12-29T03:55:33;99527.44;;;9.64;70.64
46223;BME280;31943;51.410;7.564;2023-12-29T03:57:58;99532.63;;;9.66;70.31
46223;BME280;31943;51.410;7.564;2023-12-29T04:00:24;99526.56;;;9.67;70.47
46223;BME280;31943;51.410;7.564;2023-12-29T04:02:50;99527.44;;;9.69;70.66
46223;BME280;31943;51.410;7.564;2023-12-29T04:05:19;99513.53;;;9.70;70.20
46223;BME280;31943;51.410;7.564;2023-12-29T04:07:44;99525.72;;;9.74;70.17
46223;BME280;31943;51.410;7.564;2023-12-29T04:10:10;99521.34;;;9.72;70.21
46223;BME280;31943;51.410;7.564;2023-12-29T04:12:37;99513.53;;;9.75;70.17
46223;BME280;31943;51.410;7.564;2023-12-29T04:15:04;99510.94;;;9.78;69.88
46223;BME280;31943;51.410;7.564;2023-12-29T04:17:31;99517.88;;;9.77;69.83
46223;BME280;31943;51.410;7.564;2023-12-29T04:19:56;99534.41;;;9.76;70.26
46223;BME280;31943;51.410;7.564;2023-12-29T04:22:24;99517.88;;;9.77;69.68
46223;BME280;31943;51.410;7.564;2023-12-29T04:24:51;99519.63;;;9.78;69.57
46223;BME280;31943;51.410;7.564;2023-12-29T04:27:17;99523.97;;;9.81;69.34
46223;BME280;31943;51.410;7.564;2023-12-29T04:29:43;99526.56;;;9.84;69.28
46223;BME280;31943;51.410;7.564;2023-12-29T04:32:09;99517.91;;;9.85;69.22
46223;BME280;31943;51.410;7.564;2023-12-29T04:34:34;99518.78;;;9.88;69.10
46223;BME280;31943;51.410;7.564;2023-12-29T04:37:00;99513.56;;;9.93;69.43
46223;BME280;31943;51.410;7.564;2023-12-29T04:39:27;99508.34;;;9.93;68.91
46223;BME280;31943;51.410;7.564;2023-12-29T04:41:53;99502.28;;;9.94;68.35
46223;BME280;31943;51.410;7.564;2023-12-29T04:44:19;99512.69;;;9.96;68.29
46223;BME280;31943;51.410;7.564;2023-12-29T04:46:44;99514.44;;;9.97;68.43
46223;BME280;31943;51.410;7.564;2023-12-29T04:49:10;99513.56;;;9.96;69.11
46223;BME280;31943;51.410;7.564;2023-12-29T04:51:37;99524.84;;;9.94;69.41
46223;BME280;31943;51.410;7.564;2023-12-29T04:54:03;99528.31;;;9.85;70.14
46223;BME280;31943;51.410;7.564;2023-12-29T04:56:30;99537.00;;;9.84;70.28
46223;BME280;31943;51.410;7.564;2023-12-29T04:58:56;99535.25;;;9.80;70.99
46223;BME280;31943;51.410;7.564;2023-12-29T05:01:22;99545.66;;;9.74;71.43
46223;BME280;31943;51.410;7.564;2023-12-29T05:03:49;99545.66;;;9.72;71.70
46223;BME280;31943;51.410;7.564;2023-12-29T05:06:14;99552.59;;;9.70;71.94
46223;BME280;31943;51.410;7.564;2023-12-29T05:08:40;99540.44;;;9.64;72.53
46223;BME280;31943;51.410;7.564;2023-12-29T05:11:06;99549.13;;;9.68;72.12
46223;BME280;31943;51.410;7.564;2023-12-29T05:13:33;99536.97;;;9.70;72.22
46223;BME280;31943;51.410;7.564;2023-12-29T05:15:59;99537.84;;;9.70;71.89
46223;BME280;31943;51.410;7.564;2023-12-29T05:18:25;99543.94;;;9.74;71.85
46223;BME280;31943;51.410;7.564;2023-12-29T05:20:50;99537.84;;;9.75;71.59
46223;BME280;31943;51.410;7.564;2023-12-29T05:23:16;99542.19;;;9.72;71.70
46223;BME280;31943;51.410;7.564;2023-12-29T05:25:42;99542.19;;;9.73;70.87
46223;BME280;31943;51.410;7.564;2023-12-29T05:28:07;99536.13;;;9.74;70.70
46223;BME280;31943;51.410;7.564;2023-12-29T05:30:34;99545.69;;;9.77;70.04
46223;BME280;31943;51.410;7.564;2023-12-29T05:33:00;99543.06;;;9.77;69.99
46223;BME280;31943;51.410;7.564;2023-12-29T05:35:28;99551.75;;;9.77;70.08
46223;BME280;31943;51.410;7.564;2023-12-29T05:37:54;99547.44;;;9.81;69.74
46223;BME280;31943;51.410;7.564;2023-12-29T05:40:19;99553.50;;;9.83;69.30
46223;BME280;31943;51.410;7.564;2023-12-29T05:42:45;99549.19;;;9.86;69.12
46223;BME280;31943;51.410;7.564;2023-12-29T05:45:10;99541.38;;;9.88;69.48
46223;BME280;31943;51.410;7.564;2023-12-29T05:47:38;99544.84;;;9.88;69.18
46223;BME280;31943;51.410;7.564;2023-12-29T05:50:04;99541.34;;;9.91;68.79
46223;BME280;31943;51.410;7.564;2023-12-29T05:52:30;99542.22;;;9.93;68.73
46223;BME280;31943;51.410;7.564;2023-12-29T05:54:55;99557.88;;;9.96;68.20
46223;BME280;31943;51.410;7.564;2023-12-29T05:57:21;99537.88;;;9.97;68.01
46223;BME280;31943;51.410;7.564;2023-12-29T05:59:47;99530.94;;;9.94;67.84
46223;BME280;31943;51.410;7.564;2023-12-29T06:02:13;99541.34;;;9.96;67.46
46223;BME280;31943;51.410;7.564;2023-12-29T06:04:40;99530.97;;;10.02;67.36
46223;BME280;31943;51.410;7.564;2023-12-29T06:07:05;99543.09;;;10.03;67.58
46223;BME280;31943;51.410;7.564;2023-12-29T06:09:31;99534.41;;;10.01;67.13
46223;BME280;31943;51.410;7.564;2023-12-29T06:11:57;99546.56;;;10.03;67.23
46223;BME280;31943;51.410;7.564;2023-12-29T06:14:23;99543.97;;;10.05;67.06
46223;BME280;31943;51.410;7.564;2023-12-29T06:16:48;99555.28;;;10.08;66.76
46223;BME280;31943;51.410;7.564;2023-12-29T06:19:14;99561.38;;;10.07;66.92
46223;BME280;31943;51.410;7.564;2023-12-29T06:21:44;99558.78;;;10.07;66.73
46223;BME280;31943;51.410;7.564;2023-12-29T06:24:10;99565.69;;;10.08;66.44
46223;BME280;31943;51.410;7.564;2023-12-29T06:26:36;99563.97;;;10.07;66.48
46223;BME280;31943;51.410;7.564;2023-12-29T06:29:01;99558.75;;;10.10;66.41
46223;BME280;31943;51.410;7.564;2023-12-29T06:31:27;99564.81;;;10.11;66.33
46223;BME280;31943;51.410;7.564;2023-12-29T06:33:54;99567.47;;;10.09;66.17
46223;BME280;31943;51.410;7.564;2023-12-29T06:36:19;99563.97;;;10.10;66.20
46223;BME280;31943;51.410;7.564;2023-12-29T06:38:47;99555.28;;;10.08;65.99
46223;BME280;31943;51.410;7.564;2023-12-29T06:41:14;99550.94;;;10.06;66.13
46223;BME280;31943;51.410;7.564;2023-12-29T06:43:40;99550.94;;;10.06;66.28
46223;BME280;31943;51.410;7.564;2023-12-29T06:46:05;99541.38;;;10.08;66.18
46223;BME280;31943;51.410;7.564;2023-12-29T06:48:31;99544.84;;;10.10;66.27
46223;BME280;31943;51.410;7.564;2023-12-29T06:50:56;99553.53;;;10.10;65.97
46223;BME280;31943;51.410;7.564;2023-12-29T06:53:22;99551.78;;;10.11;66.17
46223;BME280;31943;51.410;7.564;2023-12-29T06:55:49;99542.25;;;10.12;66.06
46223;BME280;31943;51.410;7.564;2023-12-29T06:58:16;99539.66;;;10.10;65.85
46223;BME280;31943;51.410;7.564;2023-12-29T07:00:41;99547.47;;;10.08;65.72
46223;BME280;31943;51.410;7.564;2023-12-29T07:03:07;99539.66;;;10.12;65.43
46223;BME280;31943;51.410;7.564;2023-12-29T07:05:32;99547.47;;;10.10;65.58
46223;BME280;31943;51.410;7.564;2023-12-29T07:07:58;99536.16;;;10.13;65.61
46223;BME280;31943;51.410;7.564;2023-12-29T07:10:24;99536.16;;;10.13;65.57
46223;BME280;31943;51.410;7.564;2023-12-29T07:12:51;99544.84;;;10.07;65.91
46223;BME280;31943;51.410;7.564;2023-12-29T07:15:16;99547.47;;;10.08;65.81
46223;BME280;31943;51.410;7.564;2023-12-29T07:17:43;99545.72;;;10.10;65.54
46223;BME280;31943;51.410;7.564;2023-12-29T07:20:09;99541.38;;;10.13;65.43
46223;BME280;31943;51.410;7.564;2023-12-29T07:22:35;99543.97;;;10.13;65.73
46223;BME280;31943;51.410;7.564;2023-12-29T07:25:01;99541.38;;;10.14;65.53
46223;BME280;31943;51.410;7.564;2023-12-29T07:27:27;99537.91;;;10.12;65.96
46223;BME280;31943;51.410;7.564;2023-12-29T07:29:54;99535.28;;;10.10;65.65
46223;BME280;31943;51.410;7.564;2023-12-29T07:32:20;99543.97;;;10.11;65.76
46223;BME280;31943;51.410;7.564;2023-12-29T07:34:46;99546.59;;;10.13;65.91
46223;BME280;31943;51.410;7.564;2023-12-29T07:37:12;99553.53;;;10.09;66.85
46223;BME280;31943;51.410;7.564;2023-12-29T07:39:37;99566.56;;;10.00;67.27
46223;BME280;31943;51.410;7.564;2023-12-29T07:42:04;99552.66;;;9.96;67.99
46223;BME280;31943;51.410;7.564;2023-12-29T07:44:30;99557.84;;;9.92;68.79
46223;BME280;31943;51.410;7.564;2023-12-29T07:46:59;99550.91;;;9.89;69.10
46223;BME280;31943;51.410;7.564;2023-12-29T07:49:25;99547.41;;;9.85;69.65
46223;BME280;31943;51.410;7.564;2023-12-29T07:51:50;99547.41;;;9.79;70.09
46223;BME280;31943;51.410;7.564;2023-12-29T07:54:16;99550.91;;;9.78;69.96
46223;BME280;31943;51.410;7.564;2023-12-29T07:56:41;99545.66;;;9.74;70.67
46223;BME280;31943;51.410;7.564;2023-12-29T07:59:07;99547.41;;;9.72;70.72
46223;BME280;31943;51.410;7.564;2023-12-29T08:01:32;99543.06;;;9.69;70.76
46223;BME280;31943;51.410;7.564;2023-12-29T08:03:59;99538.69;;;9.68;71.15
46223;BME280;31943;51.410;7.564;2023-12-29T08:06:25;99525.69;;;9.71;71.02
46223;BME280;31943;51.410;7.564;2023-12-29T08:08:52;99524.84;;;9.70;71.33
46223;BME280;31943;51.410;7.564;2023-12-29T08:11:17;99523.09;;;9.71;71.22
46223;BME280;31943;51.410;7.564;2023-12-29T08:13:43;99531.75;;;9.70;71.41
46223;BME280;31943;51.410;7.564;2023-12-29T08:16:09;99530.03;;;9.67;71.67
46223;BME280;31943;51.410;7.564;2023-12-29T08:18:35;99519.63;;;9.64;71.90
46223;BME280;31943;51.410;7.564;2023-12-29T08:21:04;99531.75;;;9.64;71.80
46223;BME280;31943;51.410;7.564;2023-12-29T08:23:29;99534.34;;;9.64;72.21
46223;BME280;31943;51.410;7.564;2023-12-29T08:25:56;99543.03;;;9.66;72.12
46223;BME280;31943;51.410;7.564;2023-12-29T08:28:22;99561.25;;;9.60;72.79
46223;BME280;31943;51.410;7.564;2023-12-29T08:30:47;99572.53;;;9.56;72.68
46223;BME280;31943;51.410;7.564;2023-12-29T08:33:14;99553.44;;;9.58;72.96
46223;BME280;31943;51.410;7.564;2023-12-29T08:35:40;99551.69;;;9.56;73.23
46223;BME280;31943;51.410;7.564;2023-12-29T08:38:07;99550.84;;;9.57;73.04
46223;BME280;31943;51.410;7.564;2023-12-29T08:40:35;99568.22;;;9.64;73.09
46223;BME280;31943;51.410;7.564;2023-12-29T08:43:01;99576.03;;;9.64;72.84
46223;BME280;31943;51.410;7.564;2023-12-29T08:45:27;99563.00;;;9.64;72.82
46223;BME280;31943;51.410;7.564;2023-12-29T08:47:56;99562.16;;;9.66;73.34
46223;BME280;31943;51.410;7.564;2023-12-29T08:50:23;99564.75;;;9.68;72.91
46223;BME280;31943;51.410;7.564;2023-12-29T08:52:49;99561.28;;;9.63;73.31
46223;BME280;31943;51.410;7.564;2023-12-29T08:55:16;99563.00;;;9.62;73.07
46223;BME280;31943;51.410;7.564;2023-12-29T08:57:42;99568.22;;;9.64;73.32
46223;BME280;31943;51.410;7.564;2023-12-29T09:00:09;99576.91;;;9.67;73.16
46223;BME280;31943;51.410;7.564;2023-12-29T09:02:35;99557.81;;;9.65;73.09
46223;BME280;31943;51.410;7.564;2023-12-29T09:05:01;99577.78;;;9.63;73.22
46223;BME280;31943;51.410;7.564;2023-12-29T09:07:27;99563.00;;;9.64;73.21
46223;BME280;31943;51.410;7.564;2023-12-29T09:09:53;99564.72;;;9.60;73.47
46223;BME280;31943;51.410;7.564;2023-12-29T09:12:20;99574.28;;;9.60;73.30
46223;BME280;31943;51.410;7.564;2023-12-29T09:14:46;99569.91;;;9.54;73.50
46223;BME280;31943;51.410;7.564;2023-12-29T09:17:11;99559.50;;;9.54;73.20
46223;BME280;31943;51.410;7.564;2023-12-29T09:19:37;99576.88;;;9.58;73.19
46223;BME280;31943;51.410;7.564;2023-12-29T09:22:03;99575.16;;;9.57;73.74
46223;BME280;31943;51.410;7.564;2023-12-29T09:24:29;99576.00;;;9.56;73.78
46223;BME280;31943;51.410;7.564;2023-12-29T09:26:57;99554.31;;;9.57;73.83
46223;BME280;31943;51.410;7.564;2023-12-29T09:29:33;99549.13;;;9.59;73.97
46223;BME280;31943;51.410;7.564;2023-12-29T09:31:58;99566.47;;;9.58;73.98
46223;BME280;31943;51.410;7.564;2023-12-29T09:34:24;99566.47;;;9.58;73.75
46223;BME280;31943;51.410;7.564;2023-12-29T09:36:50;99566.47;;;9.60;73.83
46223;BME280;31943;51.410;7.564;2023-12-29T09:39:17;99572.53;;;9.60;74.10
46223;BME280;31943;51.410;7.564;2023-12-29T09:41:46;99571.69;;;9.61;73.94
46223;BME280;31943;51.410;7.564;2023-12-29T09:44:14;99564.75;;;9.59;74.12
46223;BME280;31943;51.410;7.564;2023-12-29T09:46:42;99556.91;;;9.62;74.23
46223;BME280;31943;51.410;7.564;2023-12-29T09:49:08;99560.41;;;9.64;73.93
46223;BME280;31943;51.410;7.564;2023-12-29T09:51:34;99565.63;;;9.67;73.82
46223;BME280;31943;51.410;7.564;2023-12-29T09:54:01;99565.66;;;9.68;73.95
46223;BME280;31943;51.410;7.564;2023-12-29T09:56:31;99576.94;;;9.75;73.79
46223;BME280;31943;51.410;7.564;2023-12-29T09:59:01;99576.09;;;9.76;73.51
46223;BME280;31943;51.410;7.564;2023-12-29T10:01:28;99583.03;;;9.80;73.15
46223;BME280;31943;51.410;7.564;2023-12-29T10:03:57;99578.69;;;9.84;73.17
46223;BME280;31943;51.410;7.564;2023-12-29T10:06:24;99576.09;;;9.82;73.09
46223;BME280;31943;51.410;7.564;2023-12-29T10:08:52;99586.53;;;9.82;73.49
46223;BME280;31943;51.410;7.564;2023-12-29T10:11:21;99589.13;;;9.82;73.65
46223;BME280;31943;51.410;7.564;2023-12-29T10:13:50;99580.44;;;9.80;73.68
46223;BME280;31943;51.410;7.564;2023-12-29T10:16:24;99588.22;;;9.73;74.11
46223;BME280;31943;51.410;7.564;2023-12-29T10:19:03;99585.63;;;9.76;74.24
46223;BME280;31943;51.410;7.564;2023-12-29T10:21:38;99589.06;;;9.70;74.89
46223;BME280;31943;51.410;7.564;2023-12-29T10:24:12;99589.06;;;9.70;74.85
46223;BME280;31943;51.410;7.564;2023-12-29T10:26:41;99596.88;;;9.70;75.10
46223;BME280;31943;51.410;7.564;2023-12-29T10:29:08;99597.75;;;9.72;75.24
46223;BME280;31943;51.410;7.564;2023-12-29T10:31:35;99605.56;;;9.72;75.33
46223;BME280;31943;51.410;7.564;2023-12-29T10:34:22;99605.59;;;9.70;75.99
46223;BME280;31943;51.410;7.564;2023-12-29T10:36:49;99610.78;;;9.69;75.72
46223;BME280;31943;51.410;7.564;2023-12-29T10:39:16;99602.13;;;9.73;76.10
46223;BME280;31943;51.410;7.564;2023-12-29T10:41:42;99599.50;;;9.70;76.01
46223;BME280;31943;51.410;7.564;2023-12-29T10:44:08;99588.22;;;9.69;76.47
46223;BME280;31943;51.410;7.564;2023-12-29T10:46:34;99572.56;;;9.68;76.33
46223;BME280;31943;51.410;7.564;2023-12-29T10:49:06;99584.75;;;9.69;76.30
46223;BME280;31943;51.410;7.564;2023-12-29T10:51:33;99571.72;;;9.69;76.00
46223;BME280;31943;51.410;7.564;2023-12-29T10:54:01;99576.06;;;9.72;76.29
46223;BME280;31943;51.410;7.564;2023-12-29T10:56:27;99576.06;;;9.79;75.99
46223;BME280;31943;51.410;7.564;2023-12-29T10:58:59;99562.22;;;9.88;76.02
46223;BME280;31943;51.410;7.564;2023-12-29T11:01:26;99546.56;;;9.91;76.07
46223;BME280;31943;51.410;7.564;2023-12-29T11:03:58;99547.44;;;9.88;76.15
46223;BME280;31943;51.410;7.564;2023-12-29T11:06:24;99538.75;;;9.88;76.34
46223;BME280;31943;51.410;7.564;2023-12-29T11:08:51;99541.38;;;9.88;76.30
46223;BME280;31943;51.410;7.564;2023-12-29T11:11:17;99548.31;;;9.95;76.08
46223;BME280;31943;51.410;7.564;2023-12-29T11:13:45;99544.84;;;9.96;76.25
46223;BME280;31943;51.410;7.564;2023-12-29T11:16:12;99530.94;;;9.99;76.24
46223;BME280;31943;51.410;7.564;2023-12-29T11:18:38;99534.41;;;10.05;75.87
46223;BME280;31943;51.410;7.564;2023-12-29T11:21:06;99526.59;;;10.07;75.63
46223;BME280;31943;51.410;7.564;2023-12-29T11:23:33;99541.38;;;10.08;75.81
46223;BME280;31943;51.410;7.564;2023-12-29T11:26:01;99543.09;;;10.09;75.68
46223;BME280;31943;51.410;7.564;2023-12-29T11:28:29;99543.13;;;10.07;75.83
46223;BME280;31943;51.410;7.564;2023-12-29T11:30:54;99545.72;;;10.09;75.53
46223;BME280;31943;51.410;7.564;2023-12-29T11:33:23;99557.03;;;10.09;76.08
46223;BME280;31943;51.410;7.564;2023-12-29T11:35:51;99567.44;;;10.05;76.02
46223;BME280;31943;51.410;7.564;2023-12-29T11:38:26;99551.81;;;10.06;76.26
46223;BME280;31943;51.410;7.564;2023-12-29T11:41:05;99550.94;;;10.10;76.35
46223;BME280;31943;51.410;7.564;2023-12-29T11:43:33;99563.97;;;10.14;76.21
46223;BME280;31943;51.410;7.564;2023-12-29T11:45:59;99557.03;;;10.14;76.09
46223;BME280;31943;51.410;7.564;2023-12-29T11:48:53;99547.47;;;10.18;76.12
46223;BME280;31943;51.410;7.564;2023-12-29T11:51:30;99549.19;;;10.20;76.07
46223;BME280;31943;51.410;7.564;2023-12-29T11:53:56;99546.59;;;10.25;75.88
46223;BME280;31943;51.410;7.564;2023-12-29T11:56:23;99553.56;;;10.29;75.77
46223;BME280;31943;51.410;7.564;2023-12-29T11:58:49;99539.69;;;10.32;75.57
46223;BME280;31943;51.410;7.564;2023-12-29T12:01:33;99536.19;;;10.42;75.43
46223;BME280;31943;51.410;7.564;2023-12-29T12:03:59;99529.25;;;10.47;74.83
46223;BME280;31943;51.410;7.564;2023-12-29T12:06:36;99527.50;;;10.47;74.57
46223;BME280;31943;51.410;7.564;2023-12-29T12:09:15;99540.53;;;10.46;74.69
46223;BME280;31943;51.410;7.564;2023-12-29T12:11:43;99529.25;;;10.41;74.04
46223;BME280;31943;51.410;7.564;2023-12-29T12:14:09;99524.03;;;10.41;74.27
46223;BME280;31943;51.410;7.564;2023-12-29T12:16:47;99516.19;;;10.39;73.89
46223;BME280;31943;51.410;7.564;2023-12-29T12:19:13;99511.88;;;10.35;74.08
46223;BME280;31943;51.410;7.564;2023-12-29T12:21:40;99524.88;;;10.31;74.16
46223;BME280;31943;51.410;7.564;2023-12-29T12:24:06;99522.28;;;10.38;74.08
46223;BME280;31943;51.410;7.564;2023-12-29T12:26:33;99537.94;;;10.34;74.38
46223;BME280;31943;51.410;7.564;2023-12-29T12:29:00;99527.47;;;10.26;75.33
46223;BME280;31943;51.410;7.564;2023-12-29T12:31:26;99530.06;;;10.23;75.82
46223;BME280;31943;51.410;7.564;2023-12-29T12:33:55;99527.47;;;10.18;76.07
46223;BME280;31943;51.410;7.564;2023-12-29T12:36:21;99553.53;;;10.18;76.34
46223;BME280;31943;51.410;7.564;2023-12-29T12:38:51;99538.78;;;10.16;76.94
46223;BME280;31943;51.410;7.564;2023-12-29T12:41:16;99517.03;;;10.23;77.05
46223;BME280;31943;51.410;7.564;2023-12-29T12:43:49;99514.44;;;10.31;76.90
46223;BME280;31943;51.410;7.564;2023-12-29T12:46:17;99522.28;;;10.34;76.96
46223;BME280;31943;51.410;7.564;2023-12-29T12:48:46;99524.88;;;10.29;76.72
46223;BME280;31943;51.410;7.564;2023-12-29T12:51:13;99527.47;;;10.26;77.00
46223;BME280;31943;51.410;7.564;2023-12-29T12:53:40;99522.25;;;10.26;77.08
46223;BME280;31943;51.410;7.564;2023-12-29T12:56:06;99510.97;;;10.24;77.30
46223;BME280;31943;51.410;7.564;2023-12-29T12:58:32;99508.34;;;10.24;77.01
46223;BME280;31943;51.410;7.564;2023-12-29T13:00:59;99513.56;;;10.24;77.20
46223;BME280;31943;51.410;7.564;2023-12-29T13:03:26;99509.22;;;10.20;76.86